createdAt,value
2022-09-26T00:00:30.615Z,100794.94
2022-09-26T00:03:34.492Z,100781.09
2022-09-26T00:06:39.564Z,100775.91
2022-09-26T00:09:43.110Z,100767.22
2022-09-26T00:12:46.796Z,100764.69
2022-09-26T00:15:50.317Z,100760.31
2022-09-26T00:18:57.541Z,100751.69
2022-09-26T00:22:02.441Z,100743.91
2022-09-26T00:25:07.519Z,100754.44
2022-09-26T00:28:11.076Z,100756.19
2022-09-26T00:31:18.538Z,100744.00
2022-09-26T00:34:22.559Z,100738.78
2022-09-26T00:37:27.573Z,100741.44
2022-09-26T00:40:31.472Z,100735.31
2022-09-26T00:43:39.170Z,100727.56
2022-09-26T00:46:49.286Z,100722.25
2022-09-26T00:49:59.309Z,100715.38
2022-09-26T00:53:16.374Z,100719.78
2022-09-26T00:56:26.590Z,100719.78
2022-09-26T00:59:36.847Z,100715.34
2022-09-26T01:02:41.078Z,100708.28
2022-09-26T01:05:46.977Z,100699.41
2022-09-26T01:08:59.820Z,100696.84
2022-09-26T01:12:08.649Z,100688.00
2022-09-26T01:15:13.126Z,100675.78
2022-09-26T01:18:16.768Z,100676.75
2022-09-26T01:22:03.117Z,100672.41
2022-09-26T01:25:25.319Z,100664.44
2022-09-26T01:28:57.314Z,100656.50
2022-09-26T01:32:36.124Z,100651.22
2022-09-26T01:36:23.865Z,100646.66
2022-09-26T01:39:44.152Z,100646.66
2022-09-26T01:43:06.939Z,100642.19
2022-09-26T01:46:25.176Z,100641.34
2022-09-26T01:49:37.567Z,100635.84
2022-09-26T01:52:52.245Z,100637.56
2022-09-26T01:56:02.441Z,100629.72
2022-09-26T01:59:12.888Z,100629.72
2022-09-26T02:02:26.904Z,100620.97
2022-09-26T02:05:38.308Z,100612.13
2022-09-26T02:08:47.538Z,100612.03
2022-09-26T02:11:57.328Z,100609.34
2022-09-26T02:15:08.186Z,100602.19
2022-09-26T02:18:20.544Z,100590.91
2022-09-26T02:21:26.422Z,100583.91
2022-09-26T02:24:30.719Z,100578.59
2022-09-26T02:27:34.451Z,100575.06
2022-09-26T02:30:40.206Z,100564.53
2022-09-26T02:33:44.070Z,100562.78
2022-09-26T02:36:49.255Z,100552.25
2022-09-26T02:39:56.211Z,100539.00
2022-09-26T02:43:31.233Z,100535.44
2022-09-26T02:47:17.248Z,100526.88
2022-09-26T02:50:40.704Z,100511.94
2022-09-26T02:54:09.951Z,100511.94
2022-09-26T02:57:30.993Z,100502.19
2022-09-26T03:00:52.527Z,100505.63
2022-09-26T03:04:03.577Z,100494.19
2022-09-26T03:07:14.990Z,100488.06
2022-09-26T03:10:22.104Z,100487.13
2022-09-26T03:13:28.267Z,100474.03
2022-09-26T03:16:39.867Z,100473.13
2022-09-26T03:19:48.572Z,100473.25
2022-09-26T03:22:52.942Z,100463.66
2022-09-26T03:26:05.404Z,100464.50
2022-09-26T03:29:09.638Z,100456.66
2022-09-26T03:32:13.348Z,100450.59
2022-09-26T03:35:18.298Z,100441.75
2022-09-26T03:38:21.878Z,100443.53
2022-09-26T03:41:26.947Z,100443.53
2022-09-26T03:44:30.866Z,100441.81
2022-09-26T03:47:34.560Z,100437.44
2022-09-26T03:50:38.327Z,100435.63
2022-09-26T03:53:45.515Z,100433.00
2022-09-26T03:56:50.611Z,100424.28
2022-09-26T03:59:55.290Z,100422.59
2022-09-26T04:03:03.213Z,100410.28
2022-09-26T04:06:09.651Z,100412.06
2022-09-26T04:09:17.014Z,100401.66
2022-09-26T04:12:22.809Z,100399.81
2022-09-26T04:15:26.588Z,100388.56
2022-09-26T04:18:31.308Z,100377.16
2022-09-26T04:21:36.164Z,100383.06
2022-09-26T04:24:39.763Z,100377.91
2022-09-26T04:27:44.731Z,100370.09
2022-09-26T04:30:49.310Z,100367.38
2022-09-26T04:33:54.954Z,100362.06
2022-09-26T04:37:00.537Z,100362.00
2022-09-26T04:40:04.344Z,100350.63
2022-09-26T04:43:09.357Z,100347.94
2022-09-26T04:46:20.844Z,100342.66
2022-09-26T04:49:25.357Z,100334.78
2022-09-26T04:52:29.645Z,100340.88
2022-09-26T04:55:33.272Z,100333.75
2022-09-26T04:58:39.481Z,100328.41
2022-09-26T05:01:43.082Z,100330.06
2022-09-26T05:04:48.360Z,100325.66
2022-09-26T05:07:52.491Z,100317.72
2022-09-26T05:10:58.413Z,100314.22
2022-09-26T05:14:04.293Z,100304.47
2022-09-26T05:17:09.509Z,100298.31
2022-09-26T05:20:14.319Z,100292.91
2022-09-26T05:23:44.569Z,100288.50
2022-09-26T05:26:51.115Z,100290.22
2022-09-26T05:29:57.080Z,100288.38
2022-09-26T05:33:00.682Z,100284.84
2022-09-26T05:36:05.709Z,100285.44
2022-09-26T05:39:29.459Z,100284.34
2022-09-26T05:42:32.027Z,100291.41
2022-09-26T05:45:42.024Z,100290.56
2022-09-26T05:48:45.633Z,100293.19
2022-09-26T05:51:49.220Z,100291.53
2022-09-26T05:54:53.197Z,100288.06
2022-09-26T05:57:59.054Z,100290.63
2022-09-26T06:01:06.919Z,100280.16
2022-09-26T06:04:11.534Z,100276.72
2022-09-26T06:07:15.083Z,100280.34
2022-09-26T06:10:19.015Z,100283.88
2022-09-26T06:13:22.744Z,100277.78
2022-09-26T06:16:28.345Z,100261.94
2022-09-26T06:19:32.427Z,100263.59
2022-09-26T06:22:41.682Z,100263.69
2022-09-26T06:25:45.263Z,100259.25
2022-09-26T06:28:50.126Z,100254.84
2022-09-26T06:31:55.256Z,100252.31
2022-09-26T06:34:59.289Z,100244.25
2022-09-26T06:38:02.969Z,100244.31
2022-09-26T06:41:07.893Z,100241.78
2022-09-26T06:44:12.370Z,100234.59
2022-09-26T06:47:18.029Z,100238.34
2022-09-26T06:50:21.853Z,100229.25
2022-09-26T06:53:25.472Z,100226.56
2022-09-26T06:56:29.258Z,100220.72
2022-09-26T06:59:32.937Z,100221.59
2022-09-26T07:02:38.161Z,100218.03
2022-09-26T07:05:42.371Z,100210.09
2022-09-26T07:09:03.428Z,100201.94
2022-09-26T07:12:16.279Z,100191.31
2022-09-26T07:15:40.179Z,100188.50
2022-09-26T07:18:45.116Z,100183.75
2022-09-26T07:21:50.106Z,100186.13
2022-09-26T07:24:53.668Z,100182.56
2022-09-26T07:27:57.248Z,100184.88
2022-09-26T07:31:01.600Z,100173.19
2022-09-26T07:34:08.539Z,100175.63
2022-09-26T07:37:12.161Z,100165.19
2022-09-26T07:40:15.918Z,100163.03
2022-09-26T07:43:20.742Z,100159.72
2022-09-26T07:46:45.299Z,100157.22
2022-09-26T07:50:07.822Z,100152.75
2022-09-26T07:53:11.424Z,100148.47
2022-09-26T07:56:16.525Z,100143.91
2022-09-26T07:59:21.434Z,100142.66
2022-09-26T08:02:34.227Z,100140.06
2022-09-26T08:05:39.452Z,100143.66
2022-09-26T08:08:43.095Z,100132.06
2022-09-26T08:11:46.870Z,100124.59
2022-09-26T08:14:51.414Z,100124.75
2022-09-26T08:17:55.384Z,100116.88
2022-09-26T08:21:00.423Z,100115.72
2022-09-26T08:24:04.165Z,100103.72
2022-09-26T08:27:09.987Z,100097.88
2022-09-26T08:30:13.891Z,100098.47
2022-09-26T08:33:19.103Z,100096.00
2022-09-26T08:36:24.026Z,100104.50
2022-09-26T08:39:32.513Z,100095.72
2022-09-26T08:42:53.304Z,100103.09
2022-09-26T08:46:33.739Z,100095.06
2022-09-26T08:50:10.032Z,100098.78
2022-09-26T08:53:21.769Z,100093.44
2022-09-26T08:56:35.266Z,100085.81
2022-09-26T08:59:44.694Z,100086.00
2022-09-26T09:03:07.237Z,100092.19
2022-09-26T09:06:14.508Z,100082.84
2022-09-26T09:09:20.062Z,100082.66
2022-09-26T09:12:40.276Z,100084.03
2022-09-26T09:16:09.352Z,100081.31
2022-09-26T09:19:27.510Z,100072.50
2022-09-26T09:23:04.092Z,100078.94
2022-09-26T09:30:15.915Z,100075.03
2022-09-26T09:33:27.411Z,100072.34
2022-09-26T09:36:41.562Z,100060.38
2022-09-26T09:39:49.967Z,100060.38
2022-09-26T09:43:03.173Z,100063.81
2022-09-26T09:46:16.778Z,100053.91
2022-09-26T09:49:23.980Z,100051.91
2022-09-26T09:52:52.239Z,100046.03
2022-09-26T09:56:09.595Z,100050.94
2022-09-26T09:59:39.922Z,100043.75
2022-09-26T10:03:01.350Z,100042.91
2022-09-26T10:06:44.214Z,100034.25
2022-09-26T10:09:41.092Z,100036.00
2022-09-26T10:12:45.044Z,100026.66
2022-09-26T10:16:01.176Z,100028.41
2022-09-26T10:19:08.730Z,100033.19
2022-09-26T10:22:23.278Z,100020.63
2022-09-26T10:25:27.080Z,100013.16
2022-09-26T10:28:37.770Z,100005.56
2022-09-26T10:31:43.505Z,100002.41
2022-09-26T10:35:08.558Z,100003.66
2022-09-26T10:38:22.488Z,99992.31
2022-09-26T10:41:26.362Z,99992.22
2022-09-26T10:44:34.987Z,99987.13
2022-09-26T10:47:40.735Z,99988.50
2022-09-26T10:50:52.127Z,99983.81
2022-09-26T10:54:04.119Z,99969.09
2022-09-26T10:57:09.659Z,99962.22
2022-09-26T11:00:22.145Z,99963.94
2022-09-26T11:03:40.826Z,99960.66
2022-09-26T11:06:47.083Z,99956.25
2022-09-26T11:09:50.784Z,99947.38
2022-09-26T11:13:02.468Z,99939.66
2022-09-26T11:16:13.102Z,99928.88
2022-09-26T11:19:33.777Z,99920.34
2022-09-26T11:22:48.799Z,99916.63
2022-09-26T11:26:06.898Z,99919.84
2022-09-26T11:29:20.519Z,99904.25
2022-09-26T11:32:32.295Z,99898.91
2022-09-26T11:35:53.363Z,99900.69
2022-09-26T11:38:59.568Z,99900.13
2022-09-26T11:42:24.833Z,99897.56
2022-09-26T11:45:47.642Z,99903.91
2022-09-26T11:49:19.220Z,99895.63
2022-09-26T11:52:49.345Z,99899.34
2022-09-26T11:56:16.034Z,99892.06
2022-09-26T12:00:06.310Z,99877.97
2022-09-26T12:04:01.803Z,99885.78
2022-09-26T12:07:17.550Z,99884.94
2022-09-26T12:10:39.512Z,99878.31
2022-09-26T12:13:54.913Z,99872.38
2022-09-26T12:17:09.549Z,99880.88
2022-09-26T12:20:29.280Z,99867.91
2022-09-26T12:23:42.205Z,99878.50
2022-09-26T12:27:00.112Z,99864.84
2022-09-26T12:30:12.683Z,99864.09
2022-09-26T12:33:45.175Z,99870.34
2022-09-26T12:37:09.331Z,99869.22
2022-09-26T12:40:40.612Z,99864.91
2022-09-26T12:44:22.899Z,99856.25
2022-09-26T12:48:00.491Z,99846.19
2022-09-26T12:51:22.772Z,99846.09
2022-09-26T12:55:05.800Z,99836.50
2022-09-26T12:58:31.189Z,99837.34
2022-09-26T13:02:05.919Z,99836.00
2022-09-26T13:05:33.114Z,99844.72
2022-09-26T13:08:53.342Z,99825.13
2022-09-26T13:12:17.594Z,99827.94
2022-09-26T13:15:34.898Z,99827.94
2022-09-26T13:18:46.260Z,99836.59
2022-09-26T13:22:00.121Z,99823.69
2022-09-26T13:25:17.729Z,99827.81
2022-09-26T13:28:29.534Z,99821.88
2022-09-26T13:31:40.823Z,99815.28
2022-09-26T13:34:54.067Z,99812.41
2022-09-26T13:38:27.480Z,99805.97
2022-09-26T13:41:44.887Z,99808.25
2022-09-26T13:45:04.382Z,99793.56
2022-09-26T13:48:16.747Z,99803.28
2022-09-26T13:51:28.315Z,99795.56
2022-09-26T13:54:57.379Z,99792.78
2022-09-26T13:58:10.716Z,99790.94
2022-09-26T14:01:28.499Z,99780.66
2022-09-26T14:04:36.166Z,99783.44
2022-09-26T14:08:11.737Z,99768.41
2022-09-26T14:11:30.401Z,99772.66
2022-09-26T14:14:46.429Z,99765.63
2022-09-26T14:18:17.218Z,99763.38
2022-09-26T14:21:39.334Z,99751.22
2022-09-26T14:24:44.643Z,99746.97
2022-09-26T14:27:48.893Z,99742.66
2022-09-26T14:31:40.427Z,99747.28
2022-09-26T14:34:46.479Z,99733.31
2022-09-26T14:37:52.103Z,99732.66
2022-09-26T14:41:00.763Z,99724.63
2022-09-26T14:44:18.949Z,99721.84
2022-09-26T14:47:23.264Z,99715.06
2022-09-26T14:50:35.676Z,99710.91
2022-09-26T14:53:45.223Z,99710.63
2022-09-26T14:56:59.456Z,99696.59
2022-09-26T15:00:24.217Z,99702.09
2022-09-26T15:03:28.765Z,99698.41
2022-09-26T15:06:39.995Z,99693.22
2022-09-26T15:09:51.141Z,99687.91
2022-09-26T15:13:04.367Z,99680.97
2022-09-26T15:16:25.020Z,99682.03
2022-09-26T15:19:34.675Z,99680.03
2022-09-26T15:22:39.717Z,99683.41
2022-09-26T15:25:43.775Z,99674.09
2022-09-26T15:28:51.780Z,99674.78
2022-09-26T15:31:57.740Z,99670.63
2022-09-26T15:35:03.839Z,99665.47
2022-09-26T15:38:14.363Z,99665.38
2022-09-26T15:41:34.453Z,99664.88
2022-09-26T15:44:49.971Z,99647.44
2022-09-26T15:47:54.188Z,99650.22
2022-09-26T15:51:06.661Z,99643.97
2022-09-26T15:54:23.030Z,99637.03
2022-09-26T15:57:26.988Z,99637.03
2022-09-26T16:00:37.779Z,99629.25
2022-09-26T16:04:01.621Z,99629.16
2022-09-26T16:07:19.063Z,99629.31
2022-09-26T16:10:29.833Z,99626.53
2022-09-26T16:13:41.940Z,99623.75
2022-09-26T16:16:47.115Z,99623.69
2022-09-26T16:19:53.711Z,99616.66
2022-09-26T16:23:04.065Z,99614.03
2022-09-26T16:26:32.412Z,99611.22
2022-09-26T16:29:38.908Z,99603.53
2022-09-26T16:32:44.064Z,99615.88
2022-09-26T16:35:49.831Z,99608.78
2022-09-26T16:39:00.963Z,99598.47
2022-09-26T16:42:16.217Z,99598.38
2022-09-26T16:45:27.023Z,99597.28
2022-09-26T16:48:44.390Z,99590.69
2022-09-26T16:52:23.836Z,99589.75
2022-09-26T16:55:29.225Z,99585.38
2022-09-26T16:58:32.896Z,99582.88
2022-09-26T17:01:55.013Z,99578.31
2022-09-26T17:05:00.593Z,99580.94
2022-09-26T17:08:04.471Z,99580.34
2022-09-26T17:11:16.537Z,99575.97
2022-09-26T17:14:23.925Z,99575.97
2022-09-26T17:17:30.530Z,99570.03
2022-09-26T17:20:35.759Z,99567.31
2022-09-26T17:23:41.743Z,99577.63
2022-09-26T17:26:53.519Z,99569.94
2022-09-26T17:30:02.342Z,99565.03
2022-09-26T17:33:06.955Z,99564.78
2022-09-26T17:36:23.230Z,99563.03
2022-09-26T17:39:27.701Z,99563.09
2022-09-26T17:42:31.544Z,99556.91
2022-09-26T17:45:55.419Z,99556.16
2022-09-26T17:49:05.059Z,99545.00
2022-09-26T17:52:25.294Z,99551.75
2022-09-26T17:55:31.133Z,99552.69
2022-09-26T17:58:35.411Z,99555.47
2022-09-26T18:01:39.200Z,99543.38
2022-09-26T18:04:43.214Z,99545.00
2022-09-26T18:07:52.029Z,99548.72
2022-09-26T18:10:59.975Z,99546.09
2022-09-26T18:14:08.111Z,99541.78
2022-09-26T18:17:17.987Z,99531.47
2022-09-26T18:20:24.909Z,99533.16
2022-09-26T18:23:39.664Z,99526.03
2022-09-26T18:26:50.220Z,99517.59
2022-09-26T18:29:54.972Z,99524.53
2022-09-26T18:32:59.535Z,99520.31
2022-09-26T18:36:04.096Z,99516.59
2022-09-26T18:39:10.444Z,99516.59
2022-09-26T18:42:22.324Z,99523.69
2022-09-26T18:45:36.650Z,99518.34
2022-09-26T18:48:41.738Z,99516.69
2022-09-26T18:51:45.985Z,99519.44
2022-09-26T18:55:10.975Z,99522.06
2022-09-26T18:58:24.525Z,99514.19
2022-09-26T19:01:33.171Z,99517.78
2022-09-26T19:04:37.143Z,99518.59
2022-09-26T19:07:44.627Z,99511.66
2022-09-26T19:10:49.808Z,99511.66
2022-09-26T19:13:56.307Z,99512.63
2022-09-26T19:17:01.281Z,99515.25
2022-09-26T19:20:05.690Z,99513.28
2022-09-26T19:23:14.233Z,99511.75
2022-09-26T19:26:28.515Z,99508.28
2022-09-26T19:29:41.148Z,99502.97
2022-09-26T19:32:49.525Z,99503.88
2022-09-26T19:35:53.661Z,99503.16
2022-09-26T19:38:57.412Z,99502.06
2022-09-26T19:42:02.783Z,99495.28
2022-09-26T19:45:07.855Z,99496.13
2022-09-26T19:48:18.434Z,99496.13
2022-09-26T19:51:22.154Z,99491.78
2022-09-26T19:54:25.860Z,99498.72
2022-09-26T19:57:30.974Z,99500.34
2022-09-26T20:00:41.360Z,99499.50
2022-09-26T20:03:45.127Z,99491.72
2022-09-26T20:06:48.764Z,99494.31
2022-09-26T20:09:53.283Z,99490.88
2022-09-26T20:12:58.343Z,99486.41
2022-09-26T20:16:02.204Z,99486.31
2022-09-26T20:19:08.411Z,99476.84
2022-09-26T20:22:16.818Z,99472.44
2022-09-26T20:25:27.249Z,99472.53
2022-09-26T20:28:32.455Z,99465.44
2022-09-26T20:31:36.116Z,99460.13
2022-09-26T20:34:39.708Z,99465.25
2022-09-26T20:37:44.296Z,99451.47
2022-09-26T20:40:50.631Z,99448.03
2022-09-26T20:44:02.357Z,99446.50
2022-09-26T20:47:06.660Z,99436.28
2022-09-26T20:50:19.355Z,99435.31
2022-09-26T20:53:26.017Z,99424.09
2022-09-26T20:56:30.739Z,99431.88
2022-09-26T20:59:36.506Z,99425.78
2022-09-26T21:02:41.103Z,99432.03
2022-09-26T21:05:45.880Z,99426.81
2022-09-26T21:08:50.192Z,99425.84
2022-09-26T21:11:53.919Z,99416.84
2022-09-26T21:14:59.117Z,99419.59
2022-09-26T21:18:03.725Z,99421.38
2022-09-26T21:21:14.748Z,99420.38
2022-09-26T21:24:25.567Z,99423.91
2022-09-26T21:27:29.208Z,99417.84
2022-09-26T21:30:35.672Z,99418.69
2022-09-26T21:33:40.323Z,99416.31
2022-09-26T21:36:45.543Z,99411.00
2022-09-26T21:39:49.290Z,99411.91
2022-09-26T21:42:59.535Z,99406.69
2022-09-26T21:46:04.727Z,99414.34
2022-09-26T21:49:08.480Z,99398.63
2022-09-26T21:52:20.515Z,99395.34
2022-09-26T21:55:33.653Z,99391.13
2022-09-26T21:58:42.247Z,99386.72
2022-09-26T22:01:47.342Z,99386.06
2022-09-26T22:04:52.511Z,99390.44
2022-09-26T22:07:57.068Z,99388.78
2022-09-26T22:11:00.686Z,99377.34
2022-09-26T22:14:04.470Z,99377.75
2022-09-26T22:17:09.895Z,99372.97
2022-09-26T22:20:13.667Z,99372.97
2022-09-26T22:23:17.328Z,99369.47
2022-09-26T22:26:21.494Z,99368.47
2022-09-26T22:29:25.804Z,99358.34
2022-09-26T22:32:30.883Z,99359.19
2022-09-26T22:35:34.598Z,99361.72
2022-09-26T22:38:39.345Z,99356.47
2022-09-26T22:41:43.036Z,99348.59
2022-09-26T22:44:46.805Z,99360.03
2022-09-26T22:47:52.038Z,99351.41
2022-09-26T22:50:56.689Z,99349.72
2022-09-26T22:54:00.499Z,99347.00
2022-09-26T22:57:04.412Z,99333.84
2022-09-26T23:00:10.111Z,99336.69
2022-09-26T23:03:15.263Z,99336.63
2022-09-26T23:06:19.054Z,99334.00
2022-09-26T23:09:22.642Z,99335.69
2022-09-26T23:12:26.355Z,99330.19
2022-09-26T23:15:30.054Z,99328.59
2022-09-26T23:18:36.651Z,99328.75
2022-09-26T23:21:40.307Z,99321.66
2022-09-26T23:24:43.908Z,99326.03
2022-09-26T23:27:47.615Z,99315.50
2022-09-26T23:30:51.325Z,99312.09
2022-09-26T23:33:57.395Z,99314.81
2022-09-26T23:37:01.016Z,99306.13
2022-09-26T23:40:05.321Z,99300.88
2022-09-26T23:43:10.139Z,99300.88
2022-09-26T23:46:14.350Z,99300.72
2022-09-26T23:49:19.436Z,99298.09
2022-09-26T23:52:23.139Z,99303.31
2022-09-26T23:55:26.803Z,99298.91
2022-09-26T23:58:30.416Z,99288.53
